createdAt,value
2023-06-30T00:00:39.044Z,22.59
2023-06-30T00:02:40.737Z,22.59
2023-06-30T00:04:42.187Z,22.59
2023-06-30T00:06:43.520Z,22.60
2023-06-30T00:08:44.849Z,22.64
2023-06-30T00:10:46.196Z,22.67
2023-06-30T00:12:47.533Z,22.70
2023-06-30T00:14:48.863Z,22.69
2023-06-30T00:16:50.953Z,22.67
2023-06-30T00:18:56.748Z,22.70
2023-06-30T00:20:58.602Z,22.72
2023-06-30T00:22:59.945Z,22.71
2023-06-30T00:25:01.268Z,22.71
2023-06-30T00:27:02.591Z,22.70
2023-06-30T00:29:03.921Z,22.69
2023-06-30T00:31:05.533Z,22.68
2023-06-30T00:33:06.942Z,22.67
2023-06-30T00:35:08.348Z,22.69
2023-06-30T00:37:09.711Z,22.68
2023-06-30T00:39:11.111Z,22.67
2023-06-30T00:41:12.441Z,22.72
2023-06-30T00:43:13.792Z,22.71
2023-06-30T00:45:15.115Z,22.72
2023-06-30T00:47:16.492Z,22.73
2023-06-30T00:49:17.872Z,22.72
2023-06-30T00:51:19.207Z,22.73
2023-06-30T00:53:20.575Z,22.72
2023-06-30T00:55:21.967Z,22.70
2023-06-30T00:57:23.335Z,22.69
2023-06-30T00:59:24.660Z,22.67
2023-06-30T01:01:26.068Z,22.69
2023-06-30T01:03:27.607Z,22.70
2023-06-30T01:05:29.186Z,22.69
2023-06-30T01:07:30.680Z,22.67
2023-06-30T01:09:32.043Z,22.64
2023-06-30T01:11:33.364Z,22.64
2023-06-30T01:13:34.718Z,22.64
2023-06-30T01:15:36.055Z,22.67
2023-06-30T01:17:46.695Z,22.66
2023-06-30T01:19:48.948Z,22.67
2023-06-30T01:21:51.318Z,22.67
2023-06-30T01:23:52.645Z,22.69
2023-06-30T01:25:54.155Z,22.68
2023-06-30T01:27:55.523Z,22.67
2023-06-30T01:29:56.834Z,22.67
2023-06-30T01:31:58.164Z,22.65
2023-06-30T01:33:59.496Z,22.65
2023-06-30T01:36:00.865Z,22.64
2023-06-30T01:38:03.476Z,22.66
2023-06-30T01:40:05.475Z,22.66
2023-06-30T01:42:06.860Z,22.65
2023-06-30T01:44:08.243Z,22.61
2023-06-30T01:46:09.656Z,22.67
2023-06-30T01:48:11.032Z,22.67
2023-06-30T01:50:12.400Z,22.67
2023-06-30T01:52:13.780Z,22.65
2023-06-30T01:54:15.185Z,22.64
2023-06-30T01:56:16.600Z,22.63
2023-06-30T01:58:17.924Z,22.64
2023-06-30T02:00:19.329Z,22.61
2023-06-30T02:02:20.692Z,22.63
2023-06-30T02:04:22.386Z,22.64
2023-06-30T02:06:23.722Z,22.67
2023-06-30T02:08:25.059Z,22.66
2023-06-30T02:10:26.547Z,22.65
2023-06-30T02:12:27.889Z,22.66
2023-06-30T02:14:29.311Z,22.63
2023-06-30T02:16:30.703Z,22.65
2023-06-30T02:18:32.256Z,22.64
2023-06-30T02:20:33.864Z,22.65
2023-06-30T02:22:35.279Z,22.64
2023-06-30T02:24:36.651Z,22.64
2023-06-30T02:26:37.971Z,22.63
2023-06-30T02:28:39.297Z,22.64
2023-06-30T02:30:40.639Z,22.63
2023-06-30T02:32:42.431Z,22.61
2023-06-30T02:34:43.781Z,22.61
2023-06-30T02:36:45.137Z,22.61
2023-06-30T02:38:46.460Z,22.61
2023-06-30T02:40:47.802Z,22.60
2023-06-30T02:42:49.421Z,22.77
2023-06-30T02:44:50.803Z,22.70
2023-06-30T02:46:52.123Z,22.59
2023-06-30T02:48:53.473Z,22.49
2023-06-30T02:50:54.803Z,22.43
2023-06-30T02:52:56.123Z,22.36
2023-06-30T02:54:57.542Z,22.53
2023-06-30T02:56:58.906Z,22.49
2023-06-30T02:59:00.308Z,22.45
2023-06-30T03:01:01.697Z,22.41
2023-06-30T03:03:05.771Z,22.38
2023-06-30T03:05:08.165Z,22.33
2023-06-30T03:07:09.613Z,22.29
2023-06-30T03:09:10.996Z,22.26
2023-06-30T03:11:12.449Z,22.25
2023-06-30T03:13:13.776Z,22.22
2023-06-30T03:15:15.105Z,22.20
2023-06-30T03:17:16.477Z,22.19
2023-06-30T03:19:17.870Z,22.17
2023-06-30T03:21:19.212Z,22.16
2023-06-30T03:23:20.981Z,22.15
2023-06-30T03:25:22.811Z,22.12
2023-06-30T03:27:24.253Z,22.10
2023-06-30T03:29:25.613Z,22.11
2023-06-30T03:31:27.108Z,22.10
2023-06-30T03:33:28.569Z,22.08
2023-06-30T03:35:29.945Z,22.08
2023-06-30T03:37:32.091Z,22.07
2023-06-30T03:39:33.792Z,22.06
2023-06-30T03:41:35.166Z,22.05
2023-06-30T03:43:36.495Z,22.04
2023-06-30T03:45:39.474Z,22.03
2023-06-30T03:47:40.990Z,22.02
2023-06-30T03:49:42.371Z,22.01
2023-06-30T03:51:43.754Z,22.01
2023-06-30T03:53:45.107Z,22.00
2023-06-30T03:55:46.834Z,21.02
2023-06-30T03:57:48.428Z,21.98
2023-06-30T03:59:49.759Z,21.98
2023-06-30T04:01:51.133Z,21.97
2023-06-30T04:03:52.955Z,21.96
2023-06-30T04:05:54.467Z,21.96
2023-06-30T04:07:56.014Z,21.95
2023-06-30T04:09:57.536Z,21.95
2023-06-30T04:11:58.883Z,21.95
2023-06-30T04:14:03.166Z,21.92
2023-06-30T04:16:04.600Z,21.92
2023-06-30T04:18:05.983Z,21.92
2023-06-30T04:20:11.054Z,21.92
2023-06-30T04:22:12.551Z,21.90
2023-06-30T04:24:13.973Z,21.91
2023-06-30T04:26:18.330Z,21.89
2023-06-30T04:28:19.676Z,21.89
2023-06-30T04:30:21.006Z,21.89
2023-06-30T04:32:22.415Z,21.89
2023-06-30T04:34:23.791Z,21.87
2023-06-30T04:36:25.119Z,21.87
2023-06-30T04:38:26.580Z,21.87
2023-06-30T04:40:34.109Z,21.86
2023-06-30T04:42:35.583Z,21.85
2023-06-30T04:44:38.170Z,21.85
2023-06-30T04:46:39.599Z,21.85
2023-06-30T04:48:41.155Z,21.84
2023-06-30T04:50:42.572Z,21.83
2023-06-30T04:52:43.892Z,21.83
2023-06-30T04:54:45.304Z,21.82
2023-06-30T04:56:46.682Z,21.83
2023-06-30T04:58:48.022Z,21.82
2023-06-30T05:00:50.688Z,21.81
2023-06-30T05:02:52.168Z,21.80
2023-06-30T05:04:53.520Z,21.80
2023-06-30T05:06:54.934Z,21.79
2023-06-30T05:08:56.329Z,21.80
2023-06-30T05:10:57.662Z,21.79
2023-06-30T05:12:58.998Z,21.79
2023-06-30T05:15:00.390Z,21.79
2023-06-30T05:17:01.831Z,21.79
2023-06-30T05:19:03.627Z,21.78
2023-06-30T05:21:05.584Z,21.78
2023-06-30T05:23:06.910Z,21.78
2023-06-30T05:25:08.424Z,21.79
2023-06-30T05:27:09.747Z,21.77
2023-06-30T05:29:11.876Z,21.78
2023-06-30T05:31:13.345Z,21.77
2023-06-30T05:33:14.686Z,21.77
2023-06-30T05:35:16.095Z,21.77
2023-06-30T05:37:17.459Z,21.77
2023-06-30T05:39:18.829Z,21.76
2023-06-30T05:41:20.168Z,21.76
2023-06-30T05:43:21.542Z,21.76
2023-06-30T05:45:22.864Z,21.75
2023-06-30T05:47:24.209Z,21.74
2023-06-30T05:49:25.588Z,21.74
2023-06-30T05:51:26.920Z,21.73
2023-06-30T05:53:28.341Z,21.73
2023-06-30T05:55:29.682Z,21.73
2023-06-30T05:57:31.078Z,21.72
2023-06-30T05:59:32.408Z,21.72
2023-06-30T06:01:33.729Z,21.71
2023-06-30T06:03:35.239Z,21.71
2023-06-30T06:05:36.933Z,21.71
2023-06-30T06:07:38.583Z,21.72
2023-06-30T06:09:39.994Z,21.72
2023-06-30T06:11:41.423Z,21.73
2023-06-30T06:13:43.070Z,21.73
2023-06-30T06:15:44.657Z,21.73
2023-06-30T06:17:46.244Z,21.73
2023-06-30T06:19:47.625Z,21.72
2023-06-30T06:21:48.971Z,21.72
2023-06-30T06:23:50.300Z,21.71
2023-06-30T06:25:51.717Z,21.70
2023-06-30T06:27:53.037Z,21.70
2023-06-30T06:29:54.360Z,21.69
2023-06-30T06:31:55.705Z,21.69
2023-06-30T06:33:57.034Z,21.68
2023-06-30T06:35:58.365Z,21.68
2023-06-30T06:37:59.698Z,21.69
2023-06-30T06:40:01.037Z,21.69
2023-06-30T06:42:02.387Z,21.68
2023-06-30T06:44:03.712Z,21.69
2023-06-30T06:46:05.126Z,21.69
2023-06-30T06:48:06.504Z,21.69
2023-06-30T06:50:08.335Z,21.70
2023-06-30T06:52:09.672Z,21.69
2023-06-30T06:54:11.034Z,21.69
2023-06-30T06:56:12.365Z,21.70
2023-06-30T06:58:13.750Z,21.69
2023-06-30T07:00:15.121Z,21.70
2023-06-30T07:02:16.446Z,21.70
2023-06-30T07:04:17.804Z,21.71
2023-06-30T07:06:19.795Z,21.70
2023-06-30T07:08:21.275Z,21.70
2023-06-30T07:10:25.508Z,21.69
2023-06-30T07:12:26.888Z,21.70
2023-06-30T07:14:28.212Z,21.69
2023-06-30T07:16:29.576Z,21.70
2023-06-30T07:18:31.184Z,21.70
2023-06-30T07:20:33.150Z,21.69
2023-06-30T07:22:34.876Z,21.69
2023-06-30T07:24:43.450Z,21.70
2023-06-30T07:26:45.356Z,21.69
2023-06-30T07:28:48.313Z,21.69
2023-06-30T07:30:49.842Z,21.69
2023-06-30T07:32:51.252Z,21.70
2023-06-30T07:34:52.655Z,21.69
2023-06-30T07:36:54.013Z,21.70
2023-06-30T07:38:55.375Z,21.70
2023-06-30T07:40:57.720Z,21.70
2023-06-30T07:43:00.374Z,21.70
2023-06-30T07:45:01.790Z,21.70
2023-06-30T07:47:03.247Z,21.71
2023-06-30T07:49:04.604Z,21.72
2023-06-30T07:51:09.782Z,21.70
2023-06-30T07:53:11.721Z,21.70
2023-06-30T07:55:14.000Z,21.71
2023-06-30T07:57:15.452Z,21.70
2023-06-30T07:59:16.768Z,21.70
2023-06-30T08:01:18.097Z,21.70
2023-06-30T08:03:21.248Z,21.70
2023-06-30T08:05:23.294Z,21.71
2023-06-30T08:07:47.989Z,21.70
2023-06-30T08:09:46.028Z,21.70
2023-06-30T08:11:47.349Z,21.71
2023-06-30T08:13:48.762Z,21.71
2023-06-30T08:15:50.422Z,21.70
2023-06-30T08:17:57.226Z,21.70
2023-06-30T08:20:00.124Z,21.69
2023-06-30T08:22:02.957Z,21.69
2023-06-30T08:24:04.493Z,21.68
2023-06-30T08:26:05.942Z,21.67
2023-06-30T08:28:07.312Z,21.66
2023-06-30T08:30:08.699Z,21.66
2023-06-30T08:32:10.117Z,21.65
2023-06-30T08:34:11.674Z,21.65
2023-06-30T08:36:12.992Z,21.65
2023-06-30T08:38:14.319Z,21.64
2023-06-30T08:40:15.645Z,21.64
2023-06-30T08:42:17.007Z,21.62
2023-06-30T08:44:18.789Z,21.63
2023-06-30T08:46:20.286Z,21.61
2023-06-30T08:48:21.700Z,21.62
2023-06-30T08:50:23.639Z,21.61
2023-06-30T08:52:25.019Z,21.61
2023-06-30T08:54:26.455Z,21.60
2023-06-30T08:56:27.786Z,21.60
2023-06-30T08:58:29.310Z,21.61
2023-06-30T09:00:30.696Z,21.59
2023-06-30T09:02:32.192Z,21.59
2023-06-30T09:04:33.674Z,21.58
2023-06-30T09:06:35.027Z,21.58
2023-06-30T09:08:36.354Z,21.58
2023-06-30T09:10:38.501Z,21.57
2023-06-30T09:12:40.505Z,21.57
2023-06-30T09:14:41.856Z,21.57
2023-06-30T09:16:43.220Z,21.55
2023-06-30T09:18:44.686Z,21.55
2023-06-30T09:20:46.012Z,21.55
2023-06-30T09:22:53.507Z,21.55
2023-06-30T09:24:56.914Z,21.55
2023-06-30T09:26:58.265Z,21.55
2023-06-30T09:28:59.612Z,21.55
2023-06-30T09:31:03.129Z,21.55
2023-06-30T09:33:04.575Z,21.56
2023-06-30T09:35:06.027Z,21.55
2023-06-30T09:37:07.438Z,21.57
2023-06-30T09:39:09.868Z,21.55
2023-06-30T09:41:11.192Z,21.55
2023-06-30T09:43:12.608Z,21.54
2023-06-30T09:45:13.971Z,21.54
2023-06-30T09:47:15.365Z,21.53
2023-06-30T09:49:16.716Z,21.54
2023-06-30T09:51:20.627Z,21.54
2023-06-30T09:53:22.005Z,21.53
2023-06-30T09:55:23.398Z,21.52
2023-06-30T09:57:24.777Z,20.48
2023-06-30T09:59:26.295Z,21.52
2023-06-30T10:01:27.688Z,21.53
2023-06-30T10:03:29.309Z,21.52
2023-06-30T10:05:31.113Z,21.52
2023-06-30T10:07:32.844Z,21.53
2023-06-30T10:09:34.367Z,21.52
2023-06-30T10:11:35.770Z,21.53
2023-06-30T10:13:37.152Z,21.54
2023-06-30T10:15:38.510Z,21.53
2023-06-30T10:17:40.088Z,21.54
2023-06-30T10:19:41.523Z,21.54
2023-06-30T10:21:42.990Z,21.54
2023-06-30T10:23:44.336Z,21.54
2023-06-30T10:25:45.888Z,21.53
2023-06-30T10:27:47.497Z,21.54
2023-06-30T10:29:48.899Z,21.54
2023-06-30T10:31:50.309Z,21.54
2023-06-30T10:33:53.272Z,21.55
2023-06-30T10:35:56.022Z,21.54
2023-06-30T10:37:57.450Z,21.53
2023-06-30T10:39:59.988Z,21.54
2023-06-30T10:42:02.179Z,21.53
2023-06-30T10:44:03.532Z,21.52
2023-06-30T10:46:05.308Z,21.52
2023-06-30T10:48:06.710Z,21.49
2023-06-30T10:50:08.048Z,21.50
2023-06-30T10:52:10.227Z,21.51
2023-06-30T10:54:11.607Z,21.50
2023-06-30T10:56:13.015Z,21.49
2023-06-30T10:58:14.333Z,21.51
2023-06-30T11:00:15.875Z,21.51
2023-06-30T11:02:17.272Z,21.51
2023-06-30T11:04:18.705Z,21.51
2023-06-30T11:06:20.884Z,21.51
2023-06-30T11:08:22.214Z,21.51
2023-06-30T11:10:23.774Z,21.50
2023-06-30T11:12:25.112Z,21.51
2023-06-30T11:14:26.484Z,21.51
2023-06-30T11:16:27.838Z,21.52
2023-06-30T11:18:29.263Z,21.53
2023-06-30T11:20:31.938Z,21.53
2023-06-30T11:22:33.303Z,21.53
2023-06-30T11:24:34.633Z,21.53
2023-06-30T11:26:35.969Z,21.53
2023-06-30T11:28:37.387Z,21.54
2023-06-30T11:30:39.994Z,21.55
2023-06-30T11:32:44.341Z,21.55
2023-06-30T11:34:45.703Z,21.57
2023-06-30T11:36:47.219Z,21.58
2023-06-30T11:38:48.549Z,21.60
2023-06-30T11:40:51.239Z,21.61
2023-06-30T11:42:55.442Z,21.60
2023-06-30T11:44:56.865Z,21.61
2023-06-30T11:46:59.397Z,21.61
2023-06-30T11:49:00.760Z,21.63
2023-06-30T11:51:02.221Z,21.62
2023-06-30T11:53:03.553Z,21.64
2023-06-30T11:55:04.911Z,21.66
2023-06-30T11:57:06.248Z,21.67
2023-06-30T11:59:08.395Z,21.69
2023-06-30T12:01:09.726Z,21.70
2023-06-30T12:03:11.139Z,21.72
2023-06-30T12:05:12.645Z,21.73
2023-06-30T12:07:14.071Z,21.75
2023-06-30T12:09:15.472Z,21.77
2023-06-30T12:11:16.990Z,21.81
2023-06-30T12:13:18.564Z,21.81
2023-06-30T12:15:20.064Z,21.84
2023-06-30T12:17:21.401Z,21.85
2023-06-30T12:19:22.730Z,21.84
2023-06-30T12:21:24.064Z,21.83
2023-06-30T12:23:26.049Z,21.78
2023-06-30T12:25:28.235Z,21.77
2023-06-30T12:27:29.670Z,21.77
2023-06-30T12:29:33.020Z,21.76
2023-06-30T12:31:34.703Z,21.75
2023-06-30T12:33:36.072Z,21.74
2023-06-30T12:35:37.457Z,21.75
2023-06-30T12:37:39.788Z,21.77
2023-06-30T12:39:41.109Z,21.79
2023-06-30T12:41:42.446Z,21.82
2023-06-30T12:43:43.923Z,21.84
2023-06-30T12:45:45.260Z,21.86
2023-06-30T12:47:46.695Z,21.91
2023-06-30T12:49:48.644Z,21.93
2023-06-30T12:51:49.999Z,21.96
2023-06-30T12:53:51.362Z,21.97
2023-06-30T12:55:52.851Z,21.96
2023-06-30T12:57:54.199Z,21.97
2023-06-30T12:59:55.532Z,21.97
2023-06-30T13:01:57.046Z,21.97
2023-06-30T13:03:58.659Z,21.98
2023-06-30T13:06:00.210Z,21.98
2023-06-30T13:08:01.816Z,21.98
2023-06-30T13:10:03.353Z,21.99
2023-06-30T13:12:04.735Z,22.01
2023-06-30T13:14:06.141Z,22.03
2023-06-30T13:16:07.486Z,22.02
2023-06-30T13:18:08.893Z,22.04
2023-06-30T13:20:10.521Z,22.05
2023-06-30T13:22:13.291Z,22.06
2023-06-30T13:24:14.670Z,22.07
2023-06-30T13:26:16.036Z,22.04
2023-06-30T13:28:17.367Z,22.03
2023-06-30T13:30:18.729Z,21.99
2023-06-30T13:32:20.158Z,21.96
2023-06-30T13:34:21.573Z,21.94
2023-06-30T13:36:22.948Z,21.91
2023-06-30T13:38:24.277Z,21.90
2023-06-30T13:40:25.694Z,21.89
2023-06-30T13:42:27.098Z,21.87
2023-06-30T13:44:31.258Z,21.86
2023-06-30T13:46:32.691Z,21.86
2023-06-30T13:48:34.131Z,21.86
2023-06-30T13:50:35.517Z,21.85
2023-06-30T13:52:36.873Z,21.84
2023-06-30T13:54:39.307Z,21.84
2023-06-30T13:56:40.702Z,21.80
2023-06-30T13:58:42.021Z,21.79
2023-06-30T14:00:47.775Z,21.77
2023-06-30T14:02:49.410Z,21.75
2023-06-30T14:04:50.922Z,21.73
2023-06-30T14:06:55.238Z,21.72
2023-06-30T14:08:57.329Z,21.70
2023-06-30T14:11:00.018Z,21.68
2023-06-30T14:13:01.537Z,22.05
2023-06-30T14:15:02.904Z,22.42
2023-06-30T14:17:04.894Z,22.68
2023-06-30T14:19:07.377Z,23.41
2023-06-30T14:21:08.703Z,23.44
2023-06-30T14:23:10.034Z,22.95
2023-06-30T14:25:11.478Z,22.84
2023-06-30T14:27:12.910Z,22.45
2023-06-30T14:29:17.026Z,22.14
2023-06-30T15:22:41.785Z,21.45
2023-06-30T15:24:43.161Z,21.45
2023-06-30T15:26:44.677Z,21.45
2023-06-30T15:28:46.065Z,21.45
2023-06-30T15:30:47.679Z,21.46
2023-06-30T15:32:49.627Z,21.46
2023-06-30T15:34:51.053Z,21.45
2023-06-30T15:36:52.393Z,21.45
2023-06-30T15:38:59.885Z,21.44
2023-06-30T15:41:21.348Z,21.44
2023-06-30T15:43:23.939Z,21.43
2023-06-30T15:45:28.126Z,21.43
2023-06-30T15:47:29.573Z,21.44
2023-06-30T15:49:31.048Z,21.44
2023-06-30T15:51:32.432Z,22.10
2023-06-30T15:53:33.769Z,22.85
2023-06-30T15:55:38.220Z,22.97
2023-06-30T15:57:39.634Z,22.97
2023-06-30T15:59:41.756Z,23.04
2023-06-30T16:01:43.078Z,22.97
2023-06-30T16:03:44.592Z,22.96
2023-06-30T16:05:46.369Z,22.97
2023-06-30T16:07:48.059Z,23.02
2023-06-30T16:09:49.426Z,23.13
2023-06-30T16:11:50.776Z,23.16
2023-06-30T16:13:52.132Z,23.10
2023-06-30T16:15:53.619Z,23.06
2023-06-30T16:17:54.985Z,23.04
2023-06-30T16:19:56.426Z,23.06
2023-06-30T16:21:57.777Z,23.08
2023-06-30T16:23:59.140Z,23.10
2023-06-30T16:26:00.702Z,23.28
2023-06-30T16:28:02.126Z,23.37
2023-06-30T16:30:03.496Z,23.43
2023-06-30T16:32:04.934Z,23.45
2023-06-30T16:34:06.324Z,23.45
2023-06-30T16:36:09.082Z,22.30
2023-06-30T16:38:10.514Z,22.72
2023-06-30T16:40:12.112Z,22.80
2023-06-30T16:42:13.453Z,23.14
2023-06-30T16:44:14.837Z,23.43
2023-06-30T16:46:16.235Z,23.39
2023-06-30T16:48:17.611Z,23.44
2023-06-30T16:50:19.037Z,23.43
2023-06-30T16:52:20.435Z,23.44
2023-06-30T16:54:21.782Z,23.09
2023-06-30T16:56:23.220Z,22.91
2023-06-30T16:58:26.318Z,22.81
2023-06-30T17:00:27.707Z,22.73
2023-06-30T17:02:29.262Z,22.77
2023-06-30T17:04:31.227Z,22.79
2023-06-30T17:06:32.695Z,22.77
2023-06-30T17:08:34.057Z,22.73
2023-06-30T17:10:35.480Z,22.73
2023-06-30T17:12:39.355Z,22.73
2023-06-30T17:14:40.710Z,22.73
2023-06-30T17:16:42.070Z,22.73
2023-06-30T17:18:43.512Z,22.73
2023-06-30T17:20:44.862Z,22.73
2023-06-30T17:22:46.277Z,22.72
2023-06-30T17:24:47.614Z,22.72
2023-06-30T17:26:49.005Z,22.73
2023-06-30T17:28:50.469Z,22.75
2023-06-30T17:30:51.837Z,22.82
2023-06-30T17:32:53.306Z,22.75
2023-06-30T17:34:54.823Z,22.65
2023-06-30T17:36:56.637Z,22.57
2023-06-30T17:38:59.866Z,22.50
2023-06-30T17:41:01.216Z,22.54
2023-06-30T17:43:02.629Z,22.68
2023-06-30T17:45:07.021Z,22.60
2023-06-30T17:47:08.402Z,22.52
2023-06-30T17:49:09.740Z,22.47
2023-06-30T17:51:11.136Z,22.35
2023-06-30T17:53:12.514Z,22.23
2023-06-30T17:55:14.002Z,22.24
2023-06-30T17:57:15.423Z,22.67
2023-06-30T17:59:16.796Z,22.99
2023-06-30T18:01:18.280Z,23.34
2023-06-30T18:03:19.753Z,23.67
2023-06-30T18:05:21.156Z,23.64
2023-06-30T18:07:22.735Z,23.67
2023-06-30T18:09:24.275Z,23.69
2023-06-30T18:11:25.650Z,23.83
2023-06-30T18:13:27.060Z,23.92
2023-06-30T18:15:28.442Z,23.87
2023-06-30T18:17:29.850Z,23.79
2023-06-30T18:19:32.085Z,23.86
2023-06-30T18:21:36.611Z,23.85
2023-06-30T18:23:37.945Z,23.83
2023-06-30T18:25:39.292Z,23.80
2023-06-30T18:27:40.716Z,23.80
2023-06-30T18:29:43.074Z,23.75
2023-06-30T18:31:44.510Z,23.76
2023-06-30T18:33:45.872Z,23.80
2023-06-30T18:35:47.780Z,23.67
2023-06-30T18:37:52.336Z,23.22
2023-06-30T18:39:53.681Z,23.24
2023-06-30T18:41:56.929Z,23.62
2023-06-30T18:43:58.269Z,23.79
2023-06-30T18:45:59.637Z,23.83
2023-06-30T18:48:01.018Z,23.86
2023-06-30T18:50:02.479Z,23.95
2023-06-30T18:52:03.852Z,23.93
2023-06-30T18:54:05.301Z,24.00
2023-06-30T18:56:06.719Z,23.93
2023-06-30T18:58:08.089Z,23.96
2023-06-30T19:00:09.555Z,24.00
2023-06-30T19:02:10.908Z,23.92
2023-06-30T19:04:15.427Z,23.96
2023-06-30T19:06:16.953Z,23.98
2023-06-30T19:08:18.338Z,23.99
2023-06-30T19:10:19.748Z,23.99
2023-06-30T19:12:23.880Z,23.99
2023-06-30T19:14:28.169Z,24.00
2023-06-30T19:16:32.625Z,23.97
2023-06-30T19:18:35.751Z,23.99
2023-06-30T19:20:37.913Z,24.02
2023-06-30T19:22:39.466Z,24.00
2023-06-30T19:24:43.547Z,24.01
2023-06-30T19:26:44.963Z,24.02
2023-06-30T19:28:46.367Z,24.01
2023-06-30T19:30:47.889Z,24.02
2023-06-30T19:32:49.249Z,23.65
2023-06-30T19:34:50.627Z,23.54
2023-06-30T19:36:59.333Z,23.65
2023-06-30T19:39:00.732Z,23.83
2023-06-30T19:41:02.170Z,23.98
2023-06-30T19:43:03.553Z,23.97
2023-06-30T19:45:06.109Z,24.02
2023-06-30T19:47:07.588Z,23.99
2023-06-30T19:49:08.959Z,24.08
2023-06-30T19:51:10.381Z,23.99
2023-06-30T19:53:17.515Z,23.94
2023-06-30T19:55:19.990Z,24.05
2023-06-30T19:57:21.371Z,24.01
2023-06-30T19:59:22.836Z,24.06
2023-06-30T20:01:26.837Z,24.09
2023-06-30T20:03:28.344Z,23.41
2023-06-30T20:05:30.028Z,23.69
2023-06-30T20:07:32.032Z,23.87
2023-06-30T20:09:34.044Z,23.96
2023-06-30T20:11:35.483Z,24.00
2023-06-30T20:13:40.038Z,24.00
2023-06-30T20:15:44.059Z,23.97
2023-06-30T20:17:45.565Z,23.98
2023-06-30T20:19:52.823Z,23.77
2023-06-30T20:21:54.166Z,23.43
2023-06-30T20:23:55.544Z,23.74
2023-06-30T20:25:56.950Z,23.91
2023-06-30T20:27:58.420Z,24.09
2023-06-30T20:29:59.775Z,24.11
2023-06-30T20:32:01.167Z,24.14
2023-06-30T20:34:03.187Z,24.16
2023-06-30T20:36:04.532Z,24.20
2023-06-30T20:38:05.868Z,24.11
2023-06-30T20:40:08.539Z,24.15
2023-06-30T20:42:10.132Z,24.17
2023-06-30T20:44:14.185Z,24.22
2023-06-30T20:46:15.666Z,24.19
2023-06-30T20:48:17.075Z,24.10
2023-06-30T20:50:18.460Z,24.17
2023-06-30T20:52:19.837Z,24.16
2023-06-30T20:54:21.224Z,24.12
2023-06-30T20:56:22.655Z,24.16
2023-06-30T20:58:23.990Z,24.14
2023-06-30T21:00:25.324Z,24.21
2023-06-30T21:02:26.746Z,24.28
2023-06-30T21:04:28.172Z,24.22
2023-06-30T21:06:29.650Z,24.27
2023-06-30T21:08:31.045Z,24.31
2023-06-30T21:10:32.386Z,24.27
2023-06-30T21:12:36.943Z,24.34
2023-06-30T21:14:38.699Z,24.40
2023-06-30T21:16:42.290Z,24.32
2023-06-30T21:18:43.656Z,24.27
2023-06-30T21:20:45.273Z,24.25
2023-06-30T21:22:46.881Z,24.21
2023-06-30T21:24:48.251Z,24.29
2023-06-30T21:26:49.694Z,24.29
2023-06-30T21:28:51.110Z,24.23
2023-06-30T21:30:53.291Z,24.40
2023-06-30T21:32:57.800Z,24.29
2023-06-30T21:34:59.477Z,24.21
2023-06-30T21:37:00.918Z,24.21
2023-06-30T21:39:02.317Z,24.18
2023-06-30T21:41:03.661Z,24.14
2023-06-30T21:43:05.034Z,24.24
2023-06-30T21:45:06.408Z,23.79
2023-06-30T21:47:07.768Z,23.79
2023-06-30T21:49:09.143Z,24.08
2023-06-30T21:51:10.591Z,24.16
2023-06-30T21:53:11.969Z,24.19
2023-06-30T21:55:13.575Z,24.34
2023-06-30T21:57:14.974Z,24.31
2023-06-30T21:59:16.325Z,24.26
2023-06-30T22:01:20.282Z,24.22
2023-06-30T22:03:24.327Z,24.13
2023-06-30T22:05:27.431Z,23.73
2023-06-30T22:07:31.205Z,23.49
2023-06-30T22:09:32.644Z,23.83
2023-06-30T22:11:34.001Z,24.06
2023-06-30T22:13:36.384Z,24.16
2023-06-30T22:15:37.809Z,24.20
2023-06-30T22:17:39.301Z,24.19
2023-06-30T22:19:40.689Z,24.25
2023-06-30T22:21:42.129Z,24.31
2023-06-30T22:23:43.489Z,24.35
2023-06-30T22:25:44.848Z,24.41
2023-06-30T22:27:46.392Z,24.40
2023-06-30T22:29:47.743Z,24.44
2023-06-30T22:31:49.371Z,24.50
2023-06-30T22:33:50.748Z,24.56
2023-06-30T22:35:52.096Z,24.50
2023-06-30T22:37:53.672Z,24.53
2023-06-30T22:39:55.292Z,24.45
2023-06-30T22:41:56.672Z,24.44
2023-06-30T22:43:58.164Z,24.61
2023-06-30T22:46:01.887Z,24.52
2023-06-30T22:48:03.349Z,24.38
2023-06-30T22:50:04.812Z,24.37
2023-06-30T22:52:06.262Z,24.45
2023-06-30T22:54:07.593Z,24.44
2023-06-30T22:56:10.095Z,24.45
2023-06-30T22:58:11.444Z,24.03
2023-06-30T23:00:12.769Z,23.63
2023-06-30T23:02:14.156Z,23.55
2023-06-30T23:04:15.664Z,23.45
2023-06-30T23:06:17.083Z,23.37
2023-06-30T23:08:18.485Z,23.30
2023-06-30T23:10:19.815Z,23.28
2023-06-30T23:12:21.173Z,23.24
2023-06-30T23:14:24.329Z,23.19
2023-06-30T23:16:25.742Z,23.15
2023-06-30T23:18:27.225Z,23.10
2023-06-30T23:20:28.656Z,23.09
2023-06-30T23:22:30.776Z,23.06
2023-06-30T23:24:33.904Z,23.03
2023-06-30T23:26:35.335Z,23.01
2023-06-30T23:28:36.733Z,22.97
2023-06-30T23:30:38.132Z,22.96
2023-06-30T23:32:47.262Z,22.94
2023-06-30T23:34:49.016Z,22.92
2023-06-30T23:36:50.465Z,22.92
2023-06-30T23:38:51.801Z,22.89
2023-06-30T23:40:53.128Z,22.87
2023-06-30T23:42:54.652Z,22.87
2023-06-30T23:44:55.989Z,22.84
2023-06-30T23:46:57.342Z,22.82
2023-06-30T23:48:58.811Z,22.80
2023-06-30T23:51:00.159Z,22.79
2023-06-30T23:53:01.516Z,22.79
2023-06-30T23:55:02.858Z,22.78
2023-06-30T23:57:04.214Z,22.78
2023-06-30T23:59:05.554Z,22.76
